Time,TemperatureF,DewpointF,PressureIn,WindDirection,WindDirectionDegrees,WindSpeedMPH,WindSpeedGustMPH,Humidity,HourlyPrecipIn,Conditions,Clouds,dailyrainin,SoftwareType,DateUTC
2013-07-28 00:00:00,50.8,46.6,30.12,NW,315,0.0,0.0,86,0.00,,,0.00,WUHU216HW,2013-07-28 05:00:00,
2013-07-28 00:05:00,50.9,46.8,30.12,NW,315,0.0,0.0,86,0.00,,,0.00,WUHU216HW,2013-07-28 05:05:00,
2013-07-28 00:30:00,50.6,46.4,30.12,NW,315,0.0,0.0,86,0.00,,,0.00,WUHU216HW,2013-07-28 05:30:00,
2013-07-28 00:35:00,50.6,46.4,30.12,NW,315,0.0,0.0,86,0.00,,,0.00,WUHU216HW,2013-07-28 05:35:00,
2013-07-28 01:00:00,49.9,45.8,30.12,NNW,338,0.4,0.4,86,0.00,,,0.00,WUHU216HW,2013-07-28 06:00:00,
2013-07-28 01:05:00,49.9,45.8,30.12,NNW,338,0.4,0.4,86,0.00,,,0.00,WUHU216HW,2013-07-28 06:05:00,
2013-07-28 01:30:00,49.7,45.6,30.12,NW,315,0.0,0.0,86,0.00,,,0.00,WUHU216HW,2013-07-28 06:30:00,
2013-07-28 01:35:00,49.7,45.6,30.12,NW,315,0.0,0.0,86,0.00,,,0.00,WUHU216HW,2013-07-28 06:35:00,
2013-07-28 02:00:00,48.6,44.6,30.12,NNW,338,0.2,0.2,86,0.00,,,0.00,WUHU216HW,2013-07-28 07:00:00,
2013-07-28 02:05:00,48.6,44.6,30.12,NNW,338,0.4,0.4,86,0.00,,,0.00,WUHU216HW,2013-07-28 07:05:00,
2013-07-28 02:10:00,48.6,44.6,30.12,NNW,338,0.4,0.4,86,0.00,,,0.00,WUHU216HW,2013-07-28 07:10:00,
2013-07-28 02:30:00,47.3,43.4,30.12,NNW,338,0.0,0.0,86,0.00,,,0.00,WUHU216HW,2013-07-28 07:30:00,
2013-07-28 02:35:00,47.3,43.4,30.12,NNW,338,0.0,0.0,86,0.00,,,0.00,WUHU216HW,2013-07-28 07:35:00,
2013-07-28 03:00:00,47.2,43.6,30.12,NNW,338,0.0,0.0,87,0.00,,,0.00,WUHU216HW,2013-07-28 08:00:00,
2013-07-28 03:05:00,47.2,43.6,30.12,NNW,338,0.0,0.0,87,0.00,,,0.00,WUHU216HW,2013-07-28 08:05:00,
2013-07-28 03:30:00,47.2,43.6,30.12,NW,315,0.0,0.0,87,0.00,,,0.00,WUHU216HW,2013-07-28 08:30:00,
2013-07-28 03:35:00,47.2,43.6,30.12,NW,315,0.0,0.0,87,0.00,,,0.00,WUHU216HW,2013-07-28 08:35:00,
2013-07-28 04:00:00,47.2,43.6,30.11,NW,315,0.0,0.0,87,0.00,,,0.00,WUHU216HW,2013-07-28 09:00:00,
2013-07-28 04:05:00,47.2,43.6,30.11,NW,315,0.0,0.0,87,0.00,,,0.00,WUHU216HW,2013-07-28 09:05:00,
2013-07-28 04:30:00,47.5,43.8,30.11,NW,315,0.0,0.0,87,0.00,,,0.00,WUHU216HW,2013-07-28 09:30:00,
2013-07-28 04:35:00,47.5,43.8,30.11,NW,315,0.0,0.0,87,0.00,,,0.00,WUHU216HW,2013-07-28 09:35:00,
2013-07-28 05:00:00,47.7,44.0,30.10,WNW,293,0.0,0.0,87,0.00,,,0.00,WUHU216HW,2013-07-28 10:00:00,
2013-07-28 05:05:00,47.7,44.0,30.10,WNW,293,0.0,0.0,87,0.00,,,0.00,WUHU216HW,2013-07-28 10:05:00,
2013-07-28 05:10:00,47.7,44.0,30.10,WNW,293,0.0,0.0,87,0.00,,,0.00,WUHU216HW,2013-07-28 10:10:00,
2013-07-28 05:30:00,48.1,44.7,30.11,NW,315,0.0,0.0,88,0.00,,,0.00,WUHU216HW,2013-07-28 10:30:00,
2013-07-28 05:35:00,48.1,44.7,30.11,NW,315,0.0,0.0,88,0.00,,,0.00,WUHU216HW,2013-07-28 10:35:00,
2013-07-28 06:00:00,48.6,45.5,30.11,West,270,0.0,0.0,89,0.00,,,0.00,WUHU216HW,2013-07-28 11:00:00,
2013-07-28 06:05:00,48.6,45.5,30.11,West,270,0.0,0.0,89,0.00,,,0.00,WUHU216HW,2013-07-28 11:05:00,
2013-07-28 06:10:00,48.6,45.5,30.11,West,270,0.0,0.0,89,0.00,,,0.00,WUHU216HW,2013-07-28 11:10:00,
2013-07-28 06:30:00,49.1,46.1,30.11,NW,315,0.0,0.0,89,0.00,,,0.00,WUHU216HW,2013-07-28 11:30:00,
2013-07-28 06:35:00,49.1,46.1,30.11,NW,315,0.0,0.0,89,0.00,,,0.00,WUHU216HW,2013-07-28 11:35:00,
2013-07-28 07:00:00,49.9,47.0,30.11,NNW,338,0.4,0.4,90,0.00,,,0.00,WUHU216HW,2013-07-28 12:00:00,
2013-07-28 07:05:00,49.9,47.0,30.11,NNW,338,0.0,0.4,90,0.00,,,0.00,WUHU216HW,2013-07-28 12:05:00,
2013-07-28 07:10:00,49.9,47.0,30.11,NNW,338,0.0,0.0,90,0.00,,,0.00,WUHU216HW,2013-07-28 12:10:00,
2013-07-28 07:30:00,50.6,47.7,30.11,NNW,338,0.0,0.0,90,0.00,,,0.00,WUHU216HW,2013-07-28 12:30:00,
2013-07-28 07:35:00,50.6,47.7,30.11,NNW,338,0.0,0.0,90,0.00,,,0.00,WUHU216HW,2013-07-28 12:35:00,
2013-07-28 08:00:00,51.3,48.4,30.11,WNW,293,0.2,0.2,90,0.00,,,0.00,WUHU216HW,2013-07-28 13:00:00,
2013-07-28 08:05:00,51.3,48.4,30.11,WNW,293,0.2,0.2,90,0.00,,,0.00,WUHU216HW,2013-07-28 13:05:00,
2013-07-28 08:10:00,51.3,48.4,30.11,WNW,293,0.2,0.2,90,0.00,,,0.00,WUHU216HW,2013-07-28 13:10:00,
2013-07-28 08:30:00,52.0,49.1,30.12,NNW,338,0.2,0.2,90,0.00,,,0.00,WUHU216HW,2013-07-28 13:30:00,
2013-07-28 08:35:00,52.0,49.1,30.12,NNW,338,0.2,0.2,90,0.00,,,0.00,WUHU216HW,2013-07-28 13:35:00,
2013-07-28 09:00:00,52.2,49.1,30.12,WNW,293,0.0,0.0,89,0.00,,,0.00,WUHU216HW,2013-07-28 14:00:00,
2013-07-28 09:05:00,52.2,49.1,30.12,WNW,293,0.0,0.0,89,0.00,,,0.00,WUHU216HW,2013-07-28 14:05:00,
2013-07-28 09:30:00,53.6,50.5,30.12,NNW,338,0.4,0.4,89,0.00,,,0.00,WUHU216HW,2013-07-28 14:30:00,
2013-07-28 09:35:00,53.6,50.5,30.12,NNW,338,0.4,0.4,89,0.00,,,0.00,WUHU216HW,2013-07-28 14:35:00,
2013-07-28 10:00:00,54.4,51.2,30.12,NW,315,0.2,0.2,89,0.00,,,0.00,WUHU216HW,2013-07-28 15:00:00,
2013-07-28 10:05:00,54.4,51.2,30.12,NW,315,0.2,0.2,89,0.00,,,0.00,WUHU216HW,2013-07-28 15:05:00,
2013-07-28 10:30:00,54.7,50.9,30.13,West,270,0.7,0.7,87,0.00,,,0.00,WUHU216HW,2013-07-28 15:30:00,
2013-07-28 10:35:00,54.7,50.9,30.13,West,270,0.7,0.7,87,0.00,,,0.00,WUHU216HW,2013-07-28 15:35:00,
2013-07-28 11:00:00,55.6,51.5,30.13,North,0,0.4,0.4,86,0.00,,,0.00,WUHU216HW,2013-07-28 16:00:00,
2013-07-28 11:05:00,55.6,51.5,30.13,North,0,0.4,0.4,86,0.00,,,0.00,WUHU216HW,2013-07-28 16:05:00,
2013-07-28 11:30:00,56.5,51.7,30.14,North,0,0.4,0.4,84,0.00,,,0.00,WUHU216HW,2013-07-28 16:30:00,
2013-07-28 11:35:00,56.5,51.7,30.14,North,0,0.4,0.4,84,0.00,,,0.00,WUHU216HW,2013-07-28 16:35:00,
2013-07-28 12:00:00,58.3,52.8,30.13,WNW,293,1.8,1.8,82,0.00,,,0.00,WUHU216HW,2013-07-28 17:00:00,
2013-07-28 12:05:00,58.3,52.8,30.13,WNW,293,1.8,1.8,82,0.00,,,0.00,WUHU216HW,2013-07-28 17:05:00,
2013-07-28 12:30:00,57.4,51.9,30.13,North,0,1.1,1.1,82,0.00,,,0.00,WUHU216HW,2013-07-28 17:30:00,
2013-07-28 12:35:00,57.4,51.9,30.13,North,0,1.1,1.1,82,0.00,,,0.00,WUHU216HW,2013-07-28 17:35:00,
2013-07-28 13:00:00,57.2,51.5,30.13,North,0,1.1,1.1,81,0.00,,,0.00,WUHU216HW,2013-07-28 18:00:00,
2013-07-28 13:05:00,57.2,51.5,30.13,North,0,1.1,1.1,81,0.00,,,0.00,WUHU216HW,2013-07-28 18:05:00,
2013-07-28 13:30:00,56.3,50.9,30.15,North,0,0.2,0.2,82,0.00,,,0.00,WUHU216HW,2013-07-28 18:30:00,
2013-07-28 13:35:00,56.3,50.9,30.15,North,0,0.2,0.2,82,0.00,,,0.00,WUHU216HW,2013-07-28 18:35:00,
2013-07-28 14:00:00,55.8,51.7,30.15,NNW,338,0.4,0.4,86,0.01,,,0.00,WUHU216HW,2013-07-28 19:00:00,
2013-07-28 14:05:00,55.8,51.7,30.15,NNW,338,0.4,0.4,86,0.01,,,0.00,WUHU216HW,2013-07-28 19:05:00,
2013-07-28 14:30:00,55.1,51.2,30.16,NNW,338,0.2,0.2,87,0.01,,,0.01,WUHU216HW,2013-07-28 19:30:00,
2013-07-28 14:35:00,55.1,51.2,30.16,NNW,338,0.2,0.2,87,0.01,,,0.01,WUHU216HW,2013-07-28 19:35:00,
2013-07-28 14:40:00,55.1,51.2,30.16,NNW,338,0.2,0.2,87,0.01,,,0.01,WUHU216HW,2013-07-28 19:40:00,
2013-07-28 15:00:00,54.5,51.0,30.17,North,0,0.7,0.7,88,0.00,,,0.01,WUHU216HW,2013-07-28 20:00:00,
2013-07-28 15:05:00,54.5,51.0,30.17,North,0,0.7,0.7,88,0.00,,,0.01,WUHU216HW,2013-07-28 20:05:00,
2013-07-28 15:30:00,55.4,51.6,30.18,West,270,1.1,1.1,87,0.00,,,0.01,WUHU216HW,2013-07-28 20:30:00,
2013-07-28 15:35:00,55.4,51.6,30.18,West,270,1.1,1.1,87,0.00,,,0.01,WUHU216HW,2013-07-28 20:35:00,
2013-07-28 16:00:00,56.2,51.7,30.18,NW,315,0.4,0.4,85,0.00,,,0.01,WUHU216HW,2013-07-28 21:00:00,
2013-07-28 16:05:00,56.2,51.7,30.18,NW,315,0.4,0.4,85,0.00,,,0.01,WUHU216HW,2013-07-28 21:05:00,
2013-07-28 16:30:00,56.2,51.3,30.19,NNW,338,1.8,1.8,84,0.00,,,0.01,WUHU216HW,2013-07-28 21:30:00,
2013-07-28 16:35:00,56.2,51.3,30.19,NNW,338,1.8,1.8,84,0.00,,,0.01,WUHU216HW,2013-07-28 21:35:00,
2013-07-28 17:00:00,56.9,52.0,30.19,NNW,338,1.1,1.1,84,0.00,,,0.01,WUHU216HW,2013-07-28 22:00:00,
2013-07-28 17:05:00,56.9,52.0,30.19,NNW,338,1.1,1.1,84,0.00,,,0.01,WUHU216HW,2013-07-28 22:05:00,
2013-07-28 17:30:00,57.2,52.1,30.20,North,0,0.4,0.4,83,0.00,,,0.01,WUHU216HW,2013-07-28 22:30:00,
2013-07-28 17:35:00,57.2,52.1,30.20,North,0,0.4,0.4,83,0.00,,,0.01,WUHU216HW,2013-07-28 22:35:00,
2013-07-28 18:00:00,56.2,50.7,30.20,NW,315,2.5,2.5,82,0.00,,,0.01,WUHU216HW,2013-07-28 23:00:00,
2013-07-28 18:05:00,56.2,50.7,30.20,NNW,338,1.8,2.5,82,0.00,,,0.01,WUHU216HW,2013-07-28 23:05:00,
2013-07-28 18:10:00,56.2,50.7,30.20,NNW,338,1.8,2.5,82,0.00,,,0.01,WUHU216HW,2013-07-28 23:10:00,
2013-07-28 18:30:00,56.5,50.8,30.21,North,0,0.7,0.7,81,0.00,,,0.01,WUHU216HW,2013-07-28 23:30:00,
2013-07-28 18:35:00,56.5,50.8,30.21,North,0,0.7,0.7,81,0.00,,,0.01,WUHU216HW,2013-07-28 23:35:00,
2013-07-28 19:00:00,56.5,51.0,30.22,North,0,0.4,0.4,82,0.00,,,0.01,WUHU216HW,2013-07-29 00:00:00,
2013-07-28 19:05:00,56.5,51.0,30.22,North,0,0.4,0.4,82,0.00,,,0.01,WUHU216HW,2013-07-29 00:05:00,
2013-07-28 19:10:00,56.5,51.0,30.22,North,0,0.4,0.4,82,0.00,,,0.01,WUHU216HW,2013-07-29 00:10:00,
2013-07-28 19:30:00,55.8,50.3,30.23,North,0,0.2,0.2,82,0.00,,,0.01,WUHU216HW,2013-07-29 00:30:00,
2013-07-28 19:35:00,55.8,50.3,30.23,North,0,0.2,0.2,82,0.00,,,0.01,WUHU216HW,2013-07-29 00:35:00,
2013-07-28 20:00:00,55.3,49.8,30.24,NNE,23,0.9,0.9,82,0.00,,,0.01,WUHU216HW,2013-07-29 01:00:00,
2013-07-28 20:05:00,55.3,49.8,30.24,NNE,23,0.9,0.9,82,0.00,,,0.01,WUHU216HW,2013-07-29 01:05:00,
2013-07-28 20:10:00,55.3,49.8,30.24,NNE,23,0.9,0.9,82,0.00,,,0.01,WUHU216HW,2013-07-29 01:10:00,
2013-07-28 20:30:00,54.7,49.0,30.25,North,0,0.7,0.7,81,0.00,,,0.01,WUHU216HW,2013-07-29 01:30:00,
2013-07-28 20:35:00,54.7,49.0,30.25,North,0,0.7,0.7,81,0.00,,,0.01,WUHU216HW,2013-07-29 01:35:00,
2013-07-28 21:00:00,54.4,48.7,30.25,NNW,338,0.2,0.2,81,0.00,,,0.01,WUHU216HW,2013-07-29 02:00:00,
2013-07-28 21:05:00,54.4,48.7,30.25,NNW,338,0.2,0.2,81,0.00,,,0.01,WUHU216HW,2013-07-29 02:05:00,
2013-07-28 21:30:00,54.0,48.3,30.26,NNW,338,0.2,0.2,81,0.00,,,0.01,WUHU216HW,2013-07-29 02:30:00,
2013-07-28 21:35:00,54.0,48.3,30.26,NNW,338,0.2,0.2,81,0.00,,,0.01,WUHU216HW,2013-07-29 02:35:00,
2013-07-28 22:00:00,53.8,48.2,30.27,NNW,338,0.0,0.0,81,0.00,,,0.01,WUHU216HW,2013-07-29 03:00:00,
2013-07-28 22:05:00,53.8,48.2,30.27,NNW,338,0.0,0.0,81,0.00,,,0.01,WUHU216HW,2013-07-29 03:05:00,
2013-07-28 22:10:00,53.8,48.2,30.27,NNW,338,0.0,0.0,81,0.00,,,0.01,WUHU216HW,2013-07-29 03:10:00,
2013-07-28 22:30:00,53.6,48.0,30.27,NNW,338,0.4,0.4,81,0.00,,,0.01,WUHU216HW,2013-07-29 03:30:00,
2013-07-28 22:35:00,53.6,48.0,30.27,NNW,338,0.4,0.4,81,0.00,,,0.01,WUHU216HW,2013-07-29 03:35:00,
2013-07-28 23:00:00,52.9,47.6,30.28,NNW,338,0.2,0.2,82,0.00,,,0.01,WUHU216HW,2013-07-29 04:00:00,
2013-07-28 23:01:00,52.9,47.6,30.28,NNW,338,0.2,0.2,82,0.00,,,0.01,WUHU216HW,2013-07-29 04:01:00,
2013-07-28 23:02:00,52.9,47.6,30.28,NNW,338,0.2,0.2,82,0.00,,,0.01,WUHU216HW,2013-07-29 04:02:00,
2013-07-28 23:07:00,52.9,47.6,30.28,NNW,338,0.2,0.2,82,0.00,,,0.01,WUHU216HW,2013-07-29 04:07:00,
2013-07-28 23:30:00,52.2,46.9,30.28,NNW,338,0.0,0.0,82,0.00,,,0.01,WUHU216HW,2013-07-29 04:30:00,
2013-07-28 23:35:00,52.2,46.9,30.28,NNW,338,0.0,0.0,82,0.00,,,0.01,WUHU216HW,2013-07-29 04:35:00,